createdAt,value
2019-06-20T00:01:49.429Z,19.30
2019-06-20T00:04:18.289Z,19.30
2019-06-20T00:06:47.591Z,19.30
2019-06-20T00:09:16.666Z,19.20
2019-06-20T00:11:45.570Z,19.10
2019-06-20T00:14:14.355Z,19.00
2019-06-20T00:16:43.537Z,19.00
2019-06-20T00:19:12.328Z,18.90
2019-06-20T00:21:41.367Z,18.90
2019-06-20T00:24:10.252Z,18.90
2019-06-20T00:26:39.064Z,18.90
2019-06-20T00:29:07.817Z,18.90
2019-06-20T00:31:36.935Z,18.90
2019-06-20T00:34:05.822Z,18.90
2019-06-20T00:36:34.721Z,18.90
2019-06-20T00:39:04.343Z,18.90
2019-06-20T00:41:33.156Z,19.00
2019-06-20T00:44:02.032Z,19.00
2019-06-20T00:46:30.869Z,19.00
2019-06-20T00:49:00.474Z,19.00
2019-06-20T00:51:29.303Z,19.10
2019-06-20T00:53:58.152Z,19.10
2019-06-20T00:56:26.927Z,19.10
2019-06-20T00:58:55.948Z,19.00
2019-06-20T01:01:24.796Z,19.00
2019-06-20T01:03:53.640Z,19.10
2019-06-20T01:06:22.430Z,19.10
2019-06-20T01:08:51.340Z,19.10
2019-06-20T01:11:20.726Z,19.10
2019-06-20T01:13:52.718Z,19.10
2019-06-20T01:16:20.238Z,19.20
2019-06-20T01:18:49.134Z,19.10
2019-06-20T01:21:17.968Z,19.10
2019-06-20T01:23:46.765Z,19.10
2019-06-20T01:26:15.733Z,19.10
2019-06-20T01:28:44.585Z,19.10
2019-06-20T01:31:13.435Z,19.10
2019-06-20T01:33:42.216Z,19.00
2019-06-20T01:36:11.274Z,19.00
2019-06-20T01:38:40.115Z,18.90
2019-06-20T01:41:09.001Z,18.90
2019-06-20T01:43:50.117Z,18.80
2019-06-20T01:46:08.833Z,18.80
2019-06-20T01:48:37.712Z,18.80
2019-06-20T01:51:06.640Z,18.80
2019-06-20T01:53:35.708Z,18.80
2019-06-20T01:56:04.731Z,18.80
2019-06-20T01:58:33.559Z,18.70
2019-06-20T02:01:02.474Z,18.70
2019-06-20T02:03:31.442Z,18.70
2019-06-20T02:06:00.222Z,18.70
2019-06-20T02:08:29.198Z,18.70
2019-06-20T02:10:58.492Z,18.70
2019-06-20T02:13:27.355Z,18.70
2019-06-20T02:15:56.189Z,18.70
2019-06-20T02:18:25.350Z,18.60
2019-06-20T02:20:56.232Z,18.60
2019-06-20T02:23:25.254Z,18.50
2019-06-20T02:25:54.288Z,18.60
2019-06-20T02:28:23.706Z,18.50
2019-06-20T02:30:52.718Z,18.50
2019-06-20T02:33:21.801Z,18.50
2019-06-20T02:35:50.711Z,18.50
2019-06-20T02:38:19.652Z,18.50
2019-06-20T02:40:48.614Z,18.40
2019-06-20T02:43:17.406Z,18.50
2019-06-20T02:45:46.302Z,18.50
2019-06-20T02:48:15.198Z,18.50
2019-06-20T02:50:44.071Z,18.50
2019-06-20T02:53:13.168Z,18.50
2019-06-20T02:55:42.238Z,18.50
2019-06-20T02:58:11.183Z,18.50
2019-06-20T03:00:52.768Z,18.50
2019-06-20T03:03:21.819Z,18.50
2019-06-20T03:05:50.819Z,18.50
2019-06-20T03:08:19.597Z,18.50
2019-06-20T03:10:48.559Z,18.50
2019-06-20T03:13:17.754Z,18.50
2019-06-20T03:15:49.858Z,18.50
2019-06-20T03:18:17.472Z,18.50
2019-06-20T03:20:46.581Z,18.50
2019-06-20T03:23:15.598Z,18.50
2019-06-20T03:25:44.461Z,18.50
2019-06-20T03:28:13.308Z,18.50
2019-06-20T03:30:42.136Z,18.50
2019-06-20T03:33:11.261Z,18.50
2019-06-20T03:35:40.492Z,18.50
2019-06-20T03:38:09.502Z,18.50
2019-06-20T03:40:38.587Z,18.50
2019-06-20T03:43:07.508Z,18.50
2019-06-20T03:45:36.419Z,18.50
2019-06-20T03:48:05.566Z,18.50
2019-06-20T03:50:34.726Z,18.50
2019-06-20T03:53:03.680Z,18.50
2019-06-20T03:55:33.556Z,18.50
2019-06-20T03:58:03.323Z,18.60
2019-06-20T04:00:34.678Z,18.60
2019-06-20T04:03:05.499Z,18.60
2019-06-20T04:05:35.029Z,18.60
2019-06-20T04:08:04.384Z,18.70
2019-06-20T04:10:33.535Z,18.70
2019-06-20T04:13:02.467Z,18.70
2019-06-20T04:15:31.515Z,18.80
2019-06-20T04:18:00.342Z,18.90
2019-06-20T04:20:29.419Z,18.90
2019-06-20T04:22:58.487Z,19.00
2019-06-20T04:25:27.453Z,19.10
2019-06-20T04:27:56.544Z,19.10
2019-06-20T04:30:25.603Z,19.20
2019-06-20T04:32:54.561Z,19.30
2019-06-20T04:35:23.371Z,19.30
2019-06-20T04:37:52.702Z,19.40
2019-06-20T04:40:21.563Z,19.50
2019-06-20T04:42:50.704Z,19.50
2019-06-20T04:45:47.703Z,19.60
2019-06-20T04:48:16.903Z,19.60
2019-06-20T04:50:45.678Z,19.60
2019-06-20T04:53:14.821Z,19.70
2019-06-20T04:55:43.669Z,19.70
2019-06-20T04:58:12.595Z,19.70
2019-06-20T05:00:41.802Z,19.80
2019-06-20T05:03:10.660Z,19.90
2019-06-20T05:05:39.615Z,19.90
2019-06-20T05:08:08.528Z,19.90
2019-06-20T05:10:37.344Z,20.00
2019-06-20T05:13:06.246Z,20.00
2019-06-20T05:15:51.133Z,20.10
2019-06-20T05:18:05.791Z,20.20
2019-06-20T05:20:39.754Z,20.30
2019-06-20T05:23:08.703Z,20.40
2019-06-20T05:25:37.913Z,20.50
2019-06-20T05:28:06.833Z,20.60
2019-06-20T05:30:35.679Z,20.70
2019-06-20T05:33:04.655Z,20.80
2019-06-20T05:35:33.629Z,20.70
2019-06-20T05:38:03.361Z,20.80
2019-06-20T05:40:36.304Z,20.90
2019-06-20T05:43:03.267Z,21.00
2019-06-20T05:45:32.081Z,21.20
2019-06-20T05:48:00.888Z,21.20
2019-06-20T05:50:29.762Z,21.20
2019-06-20T05:52:58.857Z,21.20
2019-06-20T05:55:27.896Z,21.20
2019-06-20T05:57:57.836Z,21.10
2019-06-20T06:00:27.924Z,21.00
2019-06-20T06:02:58.268Z,21.00
2019-06-20T06:05:27.970Z,20.90
2019-06-20T06:07:56.835Z,20.80
2019-06-20T06:10:25.715Z,20.80
2019-06-20T06:12:54.900Z,20.80
2019-06-20T06:15:23.931Z,20.80
2019-06-20T06:17:52.933Z,20.70
2019-06-20T06:20:22.513Z,20.60
2019-06-20T06:22:51.468Z,20.60
2019-06-20T06:25:20.406Z,20.50
2019-06-20T06:27:49.302Z,20.40
2019-06-20T06:30:18.718Z,20.40
2019-06-20T06:32:47.661Z,20.30
2019-06-20T06:35:16.724Z,20.40
2019-06-20T06:37:45.603Z,20.40
2019-06-20T06:40:15.425Z,20.40
2019-06-20T06:42:44.241Z,20.40
2019-06-20T06:45:13.743Z,20.30
2019-06-20T06:47:42.809Z,20.30
2019-06-20T06:50:12.128Z,20.20
2019-06-20T06:52:40.909Z,20.10
2019-06-20T06:55:10.183Z,20.10
2019-06-20T06:57:38.973Z,20.00
2019-06-20T07:00:09.964Z,19.90
2019-06-20T07:02:38.825Z,19.90
2019-06-20T07:05:08.062Z,20.00
2019-06-20T07:07:37.002Z,20.00
2019-06-20T07:10:08.327Z,20.00
2019-06-20T07:12:37.250Z,20.00
2019-06-20T07:15:08.079Z,20.10
2019-06-20T07:17:37.031Z,20.10
2019-06-20T07:20:06.883Z,20.10
2019-06-20T07:22:36.034Z,20.10
2019-06-20T07:25:06.259Z,20.10
2019-06-20T07:27:35.290Z,20.10
2019-06-20T07:30:06.624Z,20.10
2019-06-20T07:32:35.781Z,20.10
2019-06-20T07:35:05.472Z,20.10
2019-06-20T07:37:35.101Z,20.00
2019-06-20T07:40:04.985Z,20.00
2019-06-20T07:42:40.334Z,20.10
2019-06-20T07:45:10.348Z,20.10
2019-06-20T07:47:39.417Z,20.20
2019-06-20T07:50:10.200Z,20.30
2019-06-20T07:52:39.166Z,20.40
2019-06-20T07:55:09.421Z,20.40
2019-06-20T07:57:40.067Z,20.50
2019-06-20T08:00:10.287Z,20.60
2019-06-20T08:02:39.406Z,20.70
2019-06-20T08:05:08.618Z,20.80
2019-06-20T08:07:37.862Z,20.80
2019-06-20T08:10:08.601Z,20.80
2019-06-20T08:12:37.563Z,20.70
2019-06-20T08:15:15.081Z,20.90
2019-06-20T08:17:37.423Z,21.00
2019-06-20T08:20:08.683Z,21.20
2019-06-20T08:22:38.615Z,21.30
2019-06-20T08:25:08.247Z,21.40
2019-06-20T08:27:50.550Z,21.30
2019-06-20T08:30:25.070Z,21.30
2019-06-20T08:32:57.436Z,21.30
2019-06-20T08:35:27.749Z,21.30
2019-06-20T08:37:57.864Z,21.30
2019-06-20T08:40:28.867Z,21.30
2019-06-20T08:42:59.756Z,21.30
2019-06-20T08:45:30.685Z,21.30
2019-06-20T08:48:00.091Z,21.30
2019-06-20T08:50:29.292Z,21.40
2019-06-20T08:52:59.693Z,21.40
2019-06-20T08:55:28.760Z,21.50
2019-06-20T08:57:59.459Z,21.50
2019-06-20T09:00:31.310Z,21.50
2019-06-20T09:05:31.046Z,21.60
2019-06-20T09:10:37.686Z,22.00
2019-06-20T09:13:08.814Z,22.20
2019-06-20T09:15:37.728Z,22.30
2019-06-20T09:18:08.532Z,22.40
2019-06-20T09:20:38.019Z,22.40
2019-06-20T09:23:06.996Z,22.30
2019-06-20T09:25:36.786Z,22.20
2019-06-20T09:28:06.726Z,22.10
2019-06-20T09:30:36.420Z,21.90
2019-06-20T09:33:05.585Z,21.80
2019-06-20T09:35:34.714Z,21.70
2019-06-20T09:38:03.723Z,21.60
2019-06-20T09:40:33.152Z,21.60
2019-06-20T09:43:02.929Z,21.50
2019-06-20T09:45:32.038Z,21.50
2019-06-20T09:48:02.715Z,21.70
2019-06-20T09:50:31.596Z,21.70
2019-06-20T09:53:00.609Z,21.80
2019-06-20T09:55:29.467Z,21.80
2019-06-20T09:57:58.522Z,21.70
2019-06-20T10:00:28.641Z,21.60
2019-06-20T10:02:58.008Z,21.60
2019-06-20T10:05:27.194Z,21.60
2019-06-20T10:07:56.776Z,21.80
2019-06-20T10:10:31.124Z,22.10
2019-06-20T10:13:00.207Z,22.40
2019-06-20T10:15:31.000Z,22.60
2019-06-20T10:17:59.848Z,22.60
2019-06-20T10:20:29.042Z,22.60
2019-06-20T10:22:58.174Z,22.50
2019-06-20T10:25:27.255Z,22.40
2019-06-20T10:27:57.932Z,22.30
2019-06-20T10:30:28.107Z,22.30
2019-06-20T10:32:57.987Z,22.20
2019-06-20T10:35:27.623Z,22.30
2019-06-20T10:37:57.164Z,22.20
2019-06-20T10:40:27.773Z,22.20
2019-06-20T10:42:57.012Z,22.20
2019-06-20T10:45:26.982Z,22.20
2019-06-20T10:47:56.352Z,22.20
2019-06-20T10:50:26.068Z,22.30
2019-06-20T10:52:54.962Z,22.30
2019-06-20T10:55:24.110Z,22.40
2019-06-20T10:57:54.192Z,22.50
2019-06-20T11:00:32.398Z,22.70
2019-06-20T11:02:56.124Z,22.80
2019-06-20T11:05:25.738Z,22.90
2019-06-20T11:07:54.726Z,22.90
2019-06-20T11:10:25.357Z,23.00
2019-06-20T11:12:56.179Z,22.90
2019-06-20T11:15:25.436Z,23.00
2019-06-20T11:17:56.613Z,23.10
2019-06-20T11:20:25.487Z,23.30
2019-06-20T11:22:54.704Z,23.30
2019-06-20T11:25:23.790Z,23.40
2019-06-20T11:27:53.108Z,23.50
2019-06-20T11:30:22.867Z,23.50
2019-06-20T11:32:51.865Z,23.60
2019-06-20T11:35:20.753Z,23.50
2019-06-20T11:37:49.912Z,23.50
2019-06-20T11:40:19.936Z,23.40
2019-06-20T11:42:49.075Z,23.50
2019-06-20T11:45:18.081Z,23.60
2019-06-20T11:47:47.474Z,23.70
2019-06-20T11:50:36.214Z,23.70
2019-06-20T11:53:05.256Z,23.70
2019-06-20T11:55:34.253Z,23.60
2019-06-20T11:58:03.118Z,23.50
2019-06-20T12:00:32.131Z,23.40
2019-06-20T12:03:01.163Z,23.30
2019-06-20T12:05:30.545Z,23.40
2019-06-20T12:07:59.455Z,23.40
2019-06-20T12:10:28.221Z,23.40
2019-06-20T12:12:57.584Z,23.40
2019-06-20T12:15:26.551Z,23.40
2019-06-20T12:17:55.461Z,23.40
2019-06-20T12:20:24.612Z,23.50
2019-06-20T12:22:53.618Z,23.60
2019-06-20T12:25:22.669Z,23.70
2019-06-20T12:27:51.484Z,23.70
2019-06-20T12:30:21.503Z,23.90
2019-06-20T12:32:50.645Z,24.00
2019-06-20T12:35:20.111Z,24.00
2019-06-20T12:37:50.037Z,24.10
2019-06-20T12:40:20.324Z,24.00
2019-06-20T12:42:49.604Z,24.00
2019-06-20T12:45:19.242Z,24.10
2019-06-20T12:47:48.237Z,24.10
2019-06-20T12:50:17.809Z,24.10
2019-06-20T12:52:47.586Z,24.00
2019-06-20T12:55:17.358Z,24.00
2019-06-20T12:57:48.386Z,23.90
2019-06-20T13:00:20.433Z,23.90
2019-06-20T13:02:49.880Z,23.90
2019-06-20T13:05:19.977Z,23.80
2019-06-20T13:07:50.160Z,23.80
2019-06-20T13:10:21.429Z,23.90
2019-06-20T13:12:51.597Z,24.20
2019-06-20T13:15:21.034Z,24.40
2019-06-20T13:17:50.307Z,24.60
2019-06-20T13:20:20.367Z,24.80
2019-06-20T13:22:49.669Z,24.80
2019-06-20T13:25:19.053Z,24.80
2019-06-20T13:27:48.230Z,24.90
2019-06-20T13:30:17.705Z,25.00
2019-06-20T13:32:47.150Z,25.10
2019-06-20T13:35:16.787Z,25.20
2019-06-20T13:37:47.637Z,25.20
2019-06-20T13:40:18.180Z,25.30
2019-06-20T13:42:48.060Z,25.30
2019-06-20T13:45:23.029Z,25.30
2019-06-20T13:47:52.327Z,25.20
2019-06-20T13:50:21.697Z,25.10
2019-06-20T13:52:51.261Z,25.10
2019-06-20T13:55:20.711Z,25.10
2019-06-20T13:57:49.741Z,25.10
2019-06-20T14:00:20.705Z,25.10
2019-06-20T14:02:51.433Z,25.10
2019-06-20T14:05:21.017Z,25.20
2019-06-20T14:07:53.573Z,25.20
2019-06-20T14:10:21.202Z,25.40
2019-06-20T14:12:50.658Z,25.50
2019-06-20T14:15:20.385Z,25.60
2019-06-20T14:17:49.977Z,25.50
2019-06-20T14:20:20.602Z,25.40
2019-06-20T14:22:49.790Z,25.30
2019-06-20T14:25:20.022Z,25.30
2019-06-20T14:27:49.292Z,25.20
2019-06-20T14:30:19.532Z,25.20
2019-06-20T14:32:49.407Z,25.10
2019-06-20T14:35:19.295Z,25.10
2019-06-20T14:37:49.465Z,25.30
2019-06-20T14:40:19.642Z,25.20
2019-06-20T14:42:50.112Z,25.20
2019-06-20T14:45:19.687Z,25.40
2019-06-20T14:47:48.644Z,25.50
2019-06-20T14:50:17.634Z,25.60
2019-06-20T14:52:48.236Z,25.50
2019-06-20T14:55:17.667Z,25.40
2019-06-20T14:57:48.441Z,25.30
2019-06-20T15:00:19.042Z,25.10
2019-06-20T15:02:53.100Z,25.00
2019-06-20T15:05:19.520Z,24.90
2019-06-20T15:07:49.561Z,24.80
2019-06-20T15:10:19.254Z,24.60
2019-06-20T15:12:49.812Z,24.60
2019-06-20T15:15:19.066Z,24.40
2019-06-20T15:17:50.273Z,24.40
2019-06-20T15:20:19.504Z,24.40
2019-06-20T15:22:49.249Z,24.40
2019-06-20T15:25:19.230Z,24.20
2019-06-20T15:27:50.218Z,24.10
2019-06-20T15:30:19.276Z,24.00
2019-06-20T15:33:01.243Z,23.80
2019-06-20T15:35:18.720Z,23.60
2019-06-20T15:37:48.488Z,23.40
2019-06-20T15:40:19.246Z,23.30
2019-06-20T15:42:49.581Z,23.00
2019-06-20T15:45:19.850Z,22.70
2019-06-20T15:47:48.773Z,22.40
2019-06-20T15:50:18.274Z,22.10
2019-06-20T15:52:47.129Z,21.90
2019-06-20T15:55:19.505Z,21.80
2019-06-20T15:57:48.656Z,21.80
2019-06-20T16:00:18.653Z,21.90
2019-06-20T16:02:47.429Z,22.10
2019-06-20T16:05:17.345Z,22.30
2019-06-20T16:07:46.215Z,22.40
2019-06-20T16:10:16.361Z,22.50
2019-06-20T16:12:45.335Z,22.70
2019-06-20T16:15:23.594Z,22.70
2019-06-20T16:17:52.639Z,22.80
2019-06-20T16:20:22.718Z,22.80
2019-06-20T16:22:51.818Z,22.80
2019-06-20T16:25:21.812Z,22.80
2019-06-20T16:27:50.834Z,22.70
2019-06-20T16:30:20.498Z,22.70
2019-06-20T16:32:49.294Z,22.70
2019-06-20T16:35:18.702Z,22.70
2019-06-20T16:37:48.352Z,22.70
2019-06-20T16:40:20.189Z,22.70
2019-06-20T16:42:49.076Z,22.80
2019-06-20T16:45:19.925Z,22.80
2019-06-20T16:47:48.905Z,22.90
2019-06-20T16:50:18.040Z,23.00
2019-06-20T16:52:47.520Z,23.10
2019-06-20T16:55:16.789Z,23.20
2019-06-20T16:57:45.840Z,23.20
2019-06-20T17:00:16.362Z,23.20
2019-06-20T17:02:46.139Z,23.10
2019-06-20T17:05:15.357Z,23.10
2019-06-20T17:07:44.214Z,23.10
2019-06-20T17:10:15.412Z,23.00
2019-06-20T17:12:44.326Z,23.10
2019-06-20T17:15:14.106Z,23.00
2019-06-20T17:17:42.936Z,23.00
2019-06-20T17:20:11.832Z,23.00
2019-06-20T17:22:42.462Z,23.00
2019-06-20T17:25:11.809Z,22.90
2019-06-20T17:27:40.953Z,22.90
2019-06-20T17:30:11.146Z,22.80
2019-06-20T17:32:40.282Z,22.70
2019-06-20T17:35:09.657Z,22.80
2019-06-20T17:37:38.612Z,22.80
2019-06-20T17:40:09.299Z,22.80
2019-06-20T17:42:38.327Z,22.70
2019-06-20T17:45:08.587Z,22.70
2019-06-20T17:47:37.547Z,22.70
2019-06-20T17:50:06.822Z,22.70
2019-06-20T17:52:36.040Z,22.70
2019-06-20T17:55:05.214Z,22.70
2019-06-20T17:57:34.658Z,22.80
2019-06-20T18:00:04.712Z,22.80
2019-06-20T18:02:33.665Z,22.80
2019-06-20T18:05:03.117Z,22.90
2019-06-20T18:07:32.397Z,22.90
2019-06-20T18:10:01.577Z,22.90
2019-06-20T18:12:30.722Z,22.80
2019-06-20T18:14:59.965Z,22.80
2019-06-20T18:17:29.102Z,22.80
2019-06-20T18:19:58.821Z,22.80
2019-06-20T18:22:27.882Z,22.70
2019-06-20T18:24:57.052Z,22.50
2019-06-20T18:27:26.261Z,22.40
2019-06-20T18:29:55.244Z,22.20
2019-06-20T18:32:24.256Z,22.10
2019-06-20T18:35:01.996Z,22.00
2019-06-20T18:37:31.307Z,21.80
2019-06-20T18:39:55.505Z,21.70
2019-06-20T18:42:24.881Z,21.50
2019-06-20T18:44:54.310Z,21.40
2019-06-20T18:47:24.516Z,21.30
2019-06-20T18:49:53.626Z,21.20
2019-06-20T18:52:23.458Z,21.10
2019-06-20T18:54:53.335Z,21.00
2019-06-20T18:57:22.466Z,20.80
2019-06-20T18:59:51.584Z,20.80
2019-06-20T19:02:20.643Z,20.70
2019-06-20T19:04:50.987Z,20.60
2019-06-20T19:07:19.989Z,20.60
2019-06-20T19:09:49.964Z,20.50
2019-06-20T19:12:20.248Z,20.40
2019-06-20T19:14:49.820Z,20.40
2019-06-20T19:17:18.620Z,20.40
2019-06-20T19:19:48.279Z,20.30
2019-06-20T19:22:17.756Z,20.30
2019-06-20T19:24:46.618Z,20.30
2019-06-20T19:27:15.759Z,20.30
2019-06-20T19:29:45.158Z,20.30
2019-06-20T19:32:14.281Z,20.20
2019-06-20T19:34:43.561Z,20.20
2019-06-20T19:37:12.556Z,20.10
2019-06-20T19:39:41.683Z,20.20
2019-06-20T19:42:10.530Z,20.20
2019-06-20T19:44:39.786Z,20.10
2019-06-20T19:47:08.875Z,20.20
2019-06-20T19:49:37.820Z,20.20
2019-06-20T19:52:06.643Z,20.20
2019-06-20T19:54:36.198Z,20.20
2019-06-20T19:57:05.384Z,20.20
2019-06-20T19:59:34.354Z,20.20
2019-06-20T20:02:03.673Z,20.20
2019-06-20T20:04:32.712Z,20.20
2019-06-20T20:07:01.797Z,20.20
2019-06-20T20:09:30.740Z,20.20
2019-06-20T20:11:59.848Z,20.20
2019-06-20T20:14:28.695Z,20.30
2019-06-20T20:16:57.577Z,20.30
2019-06-20T20:19:26.553Z,20.30
2019-06-20T20:21:55.509Z,20.30
2019-06-20T20:24:24.681Z,20.30
2019-06-20T20:26:53.610Z,20.30
2019-06-20T20:29:22.630Z,20.20
2019-06-20T20:31:51.634Z,20.10
2019-06-20T20:34:20.576Z,20.00
2019-06-20T20:36:49.416Z,20.00
2019-06-20T20:39:18.393Z,19.90
2019-06-20T20:41:47.262Z,19.90
2019-06-20T20:44:17.252Z,19.80
2019-06-20T20:46:46.345Z,19.80
2019-06-20T20:49:15.154Z,19.80
2019-06-20T20:51:44.044Z,19.80
2019-06-20T20:54:13.200Z,19.70
2019-06-20T20:56:42.146Z,19.70
2019-06-20T20:59:10.938Z,19.60
2019-06-20T21:01:39.835Z,19.60
2019-06-20T21:04:08.714Z,19.50
2019-06-20T21:06:37.925Z,19.50
2019-06-20T21:09:07.963Z,19.50
2019-06-20T21:11:36.919Z,19.40
2019-06-20T21:14:05.866Z,19.30
2019-06-20T21:16:34.836Z,19.30
2019-06-20T21:19:03.744Z,19.30
2019-06-20T21:21:32.678Z,19.30
2019-06-20T21:24:02.445Z,19.30
2019-06-20T21:26:47.973Z,19.20
2019-06-20T21:29:02.791Z,19.10
2019-06-20T21:31:31.653Z,19.10
2019-06-20T21:34:00.869Z,19.10
2019-06-20T21:36:29.748Z,19.00
2019-06-20T21:38:58.808Z,19.00
2019-06-20T21:41:28.381Z,19.10
2019-06-20T21:43:57.157Z,19.00
2019-06-20T21:46:26.031Z,19.00
2019-06-20T21:48:54.873Z,19.00
2019-06-20T21:51:23.792Z,19.00
2019-06-20T21:53:52.802Z,19.00
2019-06-20T21:56:21.739Z,18.90
2019-06-20T21:58:51.103Z,18.90
2019-06-20T22:01:20.766Z,18.90
2019-06-20T22:03:49.673Z,18.80
2019-06-20T22:06:23.881Z,18.80
2019-06-20T22:08:49.105Z,18.80
2019-06-20T22:11:18.067Z,18.70
2019-06-20T22:13:46.994Z,18.70
2019-06-20T22:16:16.251Z,18.60
2019-06-20T22:18:45.223Z,18.60
2019-06-20T22:21:14.364Z,18.50
2019-06-20T22:23:43.743Z,18.50
2019-06-20T22:26:12.744Z,18.50
2019-06-20T22:28:41.738Z,18.50
2019-06-20T22:31:10.842Z,18.50
2019-06-20T22:33:39.808Z,18.40
2019-06-20T22:36:09.757Z,18.40
2019-06-20T22:38:38.665Z,18.40
2019-06-20T22:41:08.330Z,18.30
2019-06-20T22:43:37.528Z,18.30
2019-06-20T22:46:06.448Z,18.30
2019-06-20T22:48:35.437Z,18.30
2019-06-20T22:51:04.505Z,18.30
2019-06-20T22:53:33.563Z,18.30
2019-06-20T22:56:02.673Z,18.20
2019-06-20T22:58:31.700Z,18.20
2019-06-20T23:01:00.651Z,18.10
2019-06-20T23:03:29.488Z,18.10
2019-06-20T23:05:58.364Z,18.10
2019-06-20T23:08:27.591Z,18.00
2019-06-20T23:10:56.842Z,18.00
2019-06-20T23:13:25.609Z,18.00
2019-06-20T23:15:54.806Z,18.00
2019-06-20T23:18:24.225Z,18.00
2019-06-20T23:21:04.003Z,17.90
2019-06-20T23:23:24.491Z,17.90
2019-06-20T23:25:55.311Z,17.90
2019-06-20T23:28:24.605Z,17.90
2019-06-20T23:30:53.527Z,17.90
2019-06-20T23:33:22.471Z,17.90
2019-06-20T23:35:51.613Z,17.80
2019-06-20T23:38:20.757Z,17.80
2019-06-20T23:40:49.934Z,17.80
2019-06-20T23:43:19.038Z,17.80
2019-06-20T23:45:48.256Z,17.80
2019-06-20T23:48:17.134Z,17.70
2019-06-20T23:50:46.001Z,17.70
2019-06-20T23:53:22.279Z,17.70
2019-06-20T23:56:10.920Z,17.70
2019-06-20T23:58:39.819Z,17.60
